createdAt,value
2017-10-11T00:01:28.256Z,94727.27
2017-10-11T00:03:55.922Z,94726.98
2017-10-11T00:06:23.645Z,94726.38
2017-10-11T00:08:51.353Z,94731.97
2017-10-11T00:11:19.159Z,94731.47
2017-10-11T00:13:46.884Z,94728.00
2017-10-11T00:16:14.599Z,94722.89
2017-10-11T00:18:42.324Z,94721.48
2017-10-11T00:21:10.044Z,94727.70
2017-10-11T00:23:37.781Z,94723.80
2017-10-11T00:26:05.505Z,94724.41
2017-10-11T00:28:33.324Z,94720.59
2017-10-11T00:31:01.264Z,94719.09
2017-10-11T00:33:29.019Z,94720.20
2017-10-11T00:35:56.762Z,94712.80
2017-10-11T00:38:24.500Z,94720.20
2017-10-11T00:40:52.204Z,94707.81
2017-10-11T00:43:19.901Z,94708.91
2017-10-11T00:45:47.659Z,94710.71
2017-10-11T00:48:15.374Z,94708.11
2017-10-11T00:50:43.174Z,94704.11
2017-10-11T00:53:10.929Z,94708.23
2017-10-11T00:55:38.768Z,94708.03
2017-10-11T00:58:06.554Z,94704.34
2017-10-11T01:00:34.305Z,94711.72
2017-10-11T01:03:02.083Z,94705.72
2017-10-11T01:05:29.823Z,94707.52
2017-10-11T01:07:57.587Z,94704.25
2017-10-11T01:10:25.321Z,94709.73
2017-10-11T01:12:53.086Z,94706.75
2017-10-11T01:15:20.949Z,94703.95
2017-10-11T01:17:48.649Z,94705.65
2017-10-11T01:20:16.380Z,94703.66
2017-10-11T01:22:44.134Z,94696.66
2017-10-11T01:25:11.911Z,94699.64
2017-10-11T01:27:39.787Z,94699.16
2017-10-11T01:30:07.553Z,94698.45
2017-10-11T01:32:35.371Z,94692.95
2017-10-11T01:35:03.149Z,94699.45
2017-10-11T01:37:30.899Z,94689.88
2017-10-11T01:39:58.938Z,94695.14
2017-10-11T01:42:26.747Z,94688.09
2017-10-11T01:44:54.574Z,94691.47
2017-10-11T01:47:22.404Z,94689.66
2017-10-11T01:49:50.431Z,94693.34
2017-10-11T01:52:18.277Z,94699.23
2017-10-11T01:54:46.040Z,94693.95
2017-10-11T01:57:13.833Z,94697.82
2017-10-11T01:59:41.554Z,94693.31
2017-10-11T02:02:09.282Z,94699.41
2017-10-11T02:04:37.028Z,94697.89
2017-10-11T02:07:04.779Z,94697.49
2017-10-11T02:09:32.630Z,94702.41
2017-10-11T02:12:00.383Z,94702.89
2017-10-11T02:14:28.207Z,94703.91
2017-10-11T02:16:55.977Z,94703.52
2017-10-11T02:19:23.690Z,94708.11
2017-10-11T02:21:51.437Z,94706.41
2017-10-11T02:24:19.117Z,94705.52
2017-10-11T02:26:46.809Z,94701.41
2017-10-11T02:29:14.573Z,94700.62
2017-10-11T02:31:42.245Z,94700.40
2017-10-11T02:34:09.956Z,94701.42
2017-10-11T02:36:37.720Z,94700.22
2017-10-11T02:39:05.444Z,94701.32
2017-10-11T02:41:33.236Z,94697.14
2017-10-11T02:44:00.967Z,94703.41
2017-10-11T02:46:28.667Z,94692.94
2017-10-11T02:48:56.406Z,94696.95
2017-10-11T02:51:24.177Z,94697.34
2017-10-11T02:53:51.994Z,94706.22
2017-10-11T02:56:19.692Z,94706.20
2017-10-11T02:58:47.438Z,94710.70
2017-10-11T03:01:15.224Z,94713.09
2017-10-11T03:03:42.955Z,94710.33
2017-10-11T03:06:10.631Z,94713.26
2017-10-11T03:08:38.363Z,94712.19
2017-10-11T03:11:06.089Z,94717.49
2017-10-11T03:13:33.841Z,94718.94
2017-10-11T03:16:01.521Z,94717.75
2017-10-11T03:18:29.196Z,94722.39
2017-10-11T03:20:56.917Z,94724.66
2017-10-11T03:23:24.667Z,94724.63
2017-10-11T03:25:52.354Z,94718.16
2017-10-11T03:28:20.065Z,94714.16
2017-10-11T03:30:47.733Z,94717.38
2017-10-11T03:33:15.458Z,94718.92
2017-10-11T03:35:43.197Z,94724.86
2017-10-11T03:38:10.908Z,94722.77
2017-10-11T03:40:38.693Z,94727.45
2017-10-11T03:43:06.390Z,94729.33
2017-10-11T03:45:34.896Z,94729.84
2017-10-11T03:48:02.668Z,94729.23
2017-10-11T03:50:30.405Z,94729.72
2017-10-11T03:52:58.087Z,94728.11
2017-10-11T03:55:25.803Z,94728.08
2017-10-11T03:57:53.586Z,94728.20
2017-10-11T04:00:21.314Z,94732.11
2017-10-11T04:02:49.063Z,94729.42
2017-10-11T04:05:16.777Z,94731.45
2017-10-11T04:07:44.622Z,94732.13
2017-10-11T04:10:12.312Z,94729.42
2017-10-11T04:12:40.090Z,94738.21
2017-10-11T04:15:07.827Z,94741.08
2017-10-11T04:17:35.652Z,94742.28
2017-10-11T04:20:03.358Z,94739.66
2017-10-11T04:22:31.059Z,94735.13
2017-10-11T04:24:58.976Z,94737.85
2017-10-11T04:27:26.775Z,94745.02
2017-10-11T04:29:54.610Z,94742.41
2017-10-11T04:32:22.350Z,94745.36
2017-10-11T04:34:50.200Z,94739.81
2017-10-11T04:37:18.148Z,94747.95
2017-10-11T04:39:45.930Z,94748.11
2017-10-11T04:42:13.721Z,94752.73
2017-10-11T04:44:41.539Z,94744.56
2017-10-11T04:47:10.039Z,94744.88
2017-10-11T04:49:38.014Z,94750.99
2017-10-11T04:52:06.226Z,94741.27
2017-10-11T04:54:34.032Z,94741.58
2017-10-11T04:57:01.781Z,94742.72
2017-10-11T04:59:29.557Z,94750.36
2017-10-11T05:01:57.316Z,94756.91
2017-10-11T05:04:25.070Z,94754.20
2017-10-11T05:06:52.793Z,94750.50
2017-10-11T05:09:20.512Z,94759.45
2017-10-11T05:11:48.199Z,94760.83
2017-10-11T05:14:17.231Z,94755.74
2017-10-11T05:16:44.922Z,94758.88
2017-10-11T05:19:12.671Z,94762.58
2017-10-11T05:21:40.431Z,94766.95
2017-10-11T05:24:08.169Z,94764.43
2017-10-11T05:26:36.010Z,94761.35
2017-10-11T05:29:04.944Z,94762.37
2017-10-11T05:31:32.685Z,94759.84
2017-10-11T05:34:00.374Z,94764.06
2017-10-11T05:36:28.148Z,94765.51
2017-10-11T05:38:55.812Z,94768.50
2017-10-11T05:41:23.480Z,94770.77
2017-10-11T05:43:51.277Z,94780.25
2017-10-11T05:46:18.954Z,94787.74
2017-10-11T05:48:46.687Z,94780.28
2017-10-11T05:51:14.423Z,94783.86
2017-10-11T05:53:42.201Z,94784.16
2017-10-11T05:56:09.890Z,94789.92
2017-10-11T05:58:37.784Z,94793.39
2017-10-11T06:01:05.521Z,94794.61
2017-10-11T06:03:33.188Z,94797.32
2017-10-11T06:06:00.952Z,94796.08
2017-10-11T06:08:28.781Z,94798.95
2017-10-11T06:10:56.510Z,94801.61
2017-10-11T06:13:24.201Z,94803.73
2017-10-11T06:15:51.944Z,94807.70
2017-10-11T06:18:19.690Z,94800.19
2017-10-11T06:20:47.585Z,94801.16
2017-10-11T06:23:15.282Z,94796.35
2017-10-11T06:25:42.983Z,94799.47
2017-10-11T06:28:10.787Z,94796.30
2017-10-11T06:30:38.621Z,94803.63
2017-10-11T06:33:06.524Z,94802.16
2017-10-11T06:35:34.199Z,94806.17
2017-10-11T06:38:01.915Z,94801.88
2017-10-11T06:40:29.742Z,94801.97
2017-10-11T06:42:57.414Z,94810.36
2017-10-11T06:45:25.154Z,94803.37
2017-10-11T06:47:52.919Z,94803.89
2017-10-11T06:50:20.623Z,94806.93
2017-10-11T06:52:48.487Z,94808.52
2017-10-11T06:55:16.170Z,94806.66
2017-10-11T06:57:43.842Z,94810.91
2017-10-11T07:00:11.597Z,94812.26
2017-10-11T07:02:39.286Z,94810.63
2017-10-11T07:05:07.181Z,94812.11
2017-10-11T07:07:35.556Z,94817.27
2017-10-11T07:10:03.294Z,94809.45
2017-10-11T07:12:31.093Z,94815.90
2017-10-11T07:14:58.872Z,94815.12
2017-10-11T07:17:26.564Z,94819.45
2017-10-11T07:19:54.283Z,94817.66
2017-10-11T07:22:21.973Z,94812.36
2017-10-11T07:24:49.784Z,94808.58
2017-10-11T07:27:17.489Z,94814.08
2017-10-11T07:29:45.236Z,94810.06
2017-10-11T07:32:13.064Z,94813.62
2017-10-11T07:34:40.782Z,94812.97
2017-10-11T07:37:08.515Z,94811.37
2017-10-11T07:39:36.328Z,94808.67
2017-10-11T07:42:04.130Z,94810.61
2017-10-11T07:44:31.905Z,94811.09
2017-10-11T07:46:59.701Z,94807.58
2017-10-11T07:49:27.470Z,94812.98
2017-10-11T07:51:55.213Z,94809.02
2017-10-11T07:54:22.950Z,94806.40
2017-10-11T07:56:50.709Z,94813.95
2017-10-11T07:59:18.598Z,94816.43
2017-10-11T08:01:46.309Z,94810.14
2017-10-11T08:04:14.012Z,94811.84
2017-10-11T08:06:41.896Z,94817.98
2017-10-11T08:09:09.635Z,94807.78
2017-10-11T08:11:37.421Z,94807.84
2017-10-11T08:14:05.188Z,94805.27
2017-10-11T08:16:32.908Z,94807.06
2017-10-11T08:19:00.669Z,94800.88
2017-10-11T08:21:28.386Z,94794.53
2017-10-11T08:23:56.097Z,94796.05
2017-10-11T08:26:23.868Z,94799.20
2017-10-11T08:28:51.624Z,94794.60
2017-10-11T08:31:19.385Z,94791.51
2017-10-11T08:33:47.067Z,94789.69
2017-10-11T08:36:15.197Z,94791.88
2017-10-11T08:38:42.895Z,94786.64
2017-10-11T08:41:10.603Z,94781.86
2017-10-11T08:43:38.413Z,94784.05
2017-10-11T08:46:06.154Z,94781.27
2017-10-11T08:48:34.687Z,94778.92
2017-10-11T08:51:02.465Z,94772.00
2017-10-11T08:53:30.195Z,94770.80
2017-10-11T08:55:57.884Z,94763.00
2017-10-11T08:58:25.671Z,94763.69
2017-10-11T09:00:53.369Z,94761.41
2017-10-11T09:03:21.090Z,94762.09
2017-10-11T09:05:48.853Z,94753.41
2017-10-11T09:08:16.638Z,94758.44
2017-10-11T09:10:44.381Z,94746.25
2017-10-11T09:13:12.129Z,94740.84
2017-10-11T09:15:39.830Z,94738.88
2017-10-11T09:18:07.608Z,94738.66
2017-10-11T09:20:35.301Z,94742.59
2017-10-11T09:23:02.979Z,94733.66
2017-10-11T09:25:30.824Z,94734.56
2017-10-11T09:27:58.515Z,94728.16
2017-10-11T09:30:26.205Z,94732.92
2017-10-11T09:32:54.007Z,94725.66
2017-10-11T09:35:21.771Z,94720.22
2017-10-11T09:37:49.523Z,94722.05
2017-10-11T09:40:17.334Z,94724.98
2017-10-11T09:42:45.334Z,94720.32
2017-10-11T09:45:13.100Z,94717.17
2017-10-11T09:47:40.810Z,94705.63
2017-10-11T09:50:08.923Z,94704.99
2017-10-11T09:52:36.829Z,94711.91
2017-10-11T09:55:04.576Z,94706.83
2017-10-11T09:57:32.265Z,94699.91
2017-10-11T10:00:00.060Z,94690.17
2017-10-11T10:02:27.833Z,94683.06
2017-10-11T10:04:55.605Z,94685.11
2017-10-11T10:07:23.325Z,94679.97
2017-10-11T10:09:51.085Z,94674.31
2017-10-11T10:12:18.828Z,94675.94
2017-10-11T10:14:46.537Z,94668.97
2017-10-11T10:17:15.388Z,94670.75
2017-10-11T10:19:43.065Z,94671.25
2017-10-11T10:22:10.813Z,94664.26
2017-10-11T10:24:38.619Z,94665.52
2017-10-11T10:27:06.340Z,94658.55
2017-10-11T10:29:34.066Z,94659.05
2017-10-11T10:32:01.762Z,94654.87
2017-10-11T10:34:29.520Z,94649.59
2017-10-11T10:36:57.195Z,94649.47
2017-10-11T10:39:25.257Z,94649.95
2017-10-11T10:41:52.937Z,94645.48
2017-10-11T10:44:20.636Z,94646.22
2017-10-11T10:46:48.372Z,94643.48
2017-10-11T10:49:16.136Z,94637.36
2017-10-11T10:51:43.877Z,94633.42
2017-10-11T10:54:11.594Z,94629.97
2017-10-11T10:56:39.404Z,94620.62
2017-10-11T10:59:07.173Z,94616.78
2017-10-11T11:01:34.965Z,94614.13
2017-10-11T11:04:02.656Z,94612.36
2017-10-11T11:06:30.325Z,94606.47
2017-10-11T11:08:58.075Z,94600.00
2017-10-11T11:11:25.796Z,94599.83
2017-10-11T11:13:53.543Z,94595.67
2017-10-11T11:16:21.256Z,94595.97
2017-10-11T11:18:49.155Z,94585.58
2017-10-11T11:21:16.947Z,94585.53
2017-10-11T11:23:44.736Z,94583.43
2017-10-11T11:26:13.173Z,94570.17
2017-10-11T11:28:40.855Z,94563.20
2017-10-11T11:31:08.592Z,94566.08
2017-10-11T11:33:36.477Z,94557.80
2017-10-11T11:36:04.232Z,94560.31
2017-10-11T11:38:32.019Z,94564.06
2017-10-11T11:40:59.752Z,94557.61
2017-10-11T11:43:27.498Z,94558.17
2017-10-11T11:45:55.755Z,94549.23
2017-10-11T11:48:24.344Z,94554.24
2017-10-11T11:50:54.068Z,94547.62
2017-10-11T11:53:22.042Z,94546.33
2017-10-11T11:55:49.774Z,94540.86
2017-10-11T11:58:17.582Z,94533.59
2017-10-11T12:00:45.610Z,94531.09
2017-10-11T12:03:14.159Z,94526.55
2017-10-11T12:05:41.929Z,94521.25
2017-10-11T12:08:10.251Z,94524.35
2017-10-11T12:10:39.212Z,94523.45
2017-10-11T12:13:07.013Z,94525.14
2017-10-11T12:15:34.962Z,94512.48
2017-10-11T12:18:02.842Z,94522.69
2017-10-11T12:20:32.746Z,94518.64
2017-10-11T12:23:01.655Z,94517.89
2017-10-11T12:25:29.744Z,94518.48
2017-10-11T12:27:57.642Z,94514.47
2017-10-11T12:30:25.537Z,94508.10
2017-10-11T12:32:54.290Z,94503.77
2017-10-11T12:35:22.233Z,94507.63
2017-10-11T12:37:50.457Z,94508.41
2017-10-11T12:40:18.290Z,94506.61
2017-10-11T12:42:46.914Z,94498.73
2017-10-11T12:45:14.822Z,94498.67
2017-10-11T12:47:43.137Z,94502.16
2017-10-11T12:50:10.958Z,94499.08
2017-10-11T12:52:39.704Z,94489.52
2017-10-11T12:55:07.492Z,94492.77
2017-10-11T12:57:35.554Z,94490.59
2017-10-11T13:00:03.330Z,94489.77
2017-10-11T13:02:31.113Z,94481.55
2017-10-11T13:04:58.941Z,94484.36
2017-10-11T13:07:26.795Z,94487.73
2017-10-11T13:09:54.569Z,94484.91
2017-10-11T13:12:22.489Z,94484.45
2017-10-11T13:14:51.605Z,94480.23
2017-10-11T13:17:19.505Z,94476.66
2017-10-11T13:19:47.232Z,94477.31
2017-10-11T13:22:15.076Z,94476.83
2017-10-11T13:24:43.603Z,94478.11
2017-10-11T13:27:11.399Z,94475.69
2017-10-11T13:29:39.169Z,94473.42
2017-10-11T13:32:06.871Z,94475.34
2017-10-11T13:34:35.734Z,94478.02
2017-10-11T13:37:03.530Z,94474.84
2017-10-11T13:39:31.315Z,94469.30
2017-10-11T13:41:59.016Z,94468.44
2017-10-11T13:44:26.870Z,94468.86
2017-10-11T13:46:54.596Z,94464.27
2017-10-11T13:49:22.364Z,94465.58
2017-10-11T13:51:50.737Z,94462.66
2017-10-11T13:54:18.532Z,94466.67
2017-10-11T13:56:46.327Z,94459.02
2017-10-11T13:59:14.277Z,94462.36
2017-10-11T14:01:42.131Z,94460.78
2017-10-11T14:04:09.928Z,94459.52
2017-10-11T14:06:37.668Z,94459.22
2017-10-11T14:09:05.555Z,94454.33
2017-10-11T14:11:33.384Z,94459.77
2017-10-11T14:14:01.101Z,94464.23
2017-10-11T14:16:28.816Z,94460.59
2017-10-11T14:18:56.726Z,94459.00
2017-10-11T14:21:25.024Z,94457.67
2017-10-11T14:23:52.880Z,94460.80
2017-10-11T14:26:20.747Z,94454.34
2017-10-11T14:31:22.614Z,94457.27
2017-10-11T14:33:50.423Z,94458.14
2017-10-11T14:36:18.454Z,94461.44
2017-10-11T14:38:47.221Z,94463.94
2017-10-11T14:41:14.931Z,94460.51
2017-10-11T14:43:42.776Z,94458.66
2017-10-11T14:46:10.510Z,94462.88
2017-10-11T14:48:38.368Z,94461.59
2017-10-11T14:51:06.877Z,94458.31
2017-10-11T14:53:34.657Z,94461.62
2017-10-11T14:56:02.405Z,94456.05
2017-10-11T14:58:30.187Z,94461.02
2017-10-11T15:00:57.967Z,94464.81
2017-10-11T15:03:25.783Z,94471.31
2017-10-11T15:05:53.556Z,94469.31
2017-10-11T15:08:21.282Z,94474.44
2017-10-11T15:10:49.021Z,94473.40
2017-10-11T15:13:17.876Z,94475.20
2017-10-11T15:15:45.708Z,94482.94
2017-10-11T15:18:13.429Z,94475.44
2017-10-11T15:20:41.218Z,94477.88
2017-10-11T15:23:08.937Z,94478.16
2017-10-11T15:25:36.928Z,94484.06
2017-10-11T15:28:04.739Z,94484.44
2017-10-11T15:30:32.449Z,94485.52
2017-10-11T15:33:00.188Z,94481.95
2017-10-11T15:35:28.015Z,94485.80
2017-10-11T15:37:55.735Z,94484.73
2017-10-11T15:40:23.564Z,94487.68
2017-10-11T15:42:51.505Z,94487.53
2017-10-11T15:45:19.239Z,94484.23
2017-10-11T15:47:47.061Z,94491.16
2017-10-11T15:50:14.822Z,94494.32
2017-10-11T15:52:42.561Z,94494.10
2017-10-11T15:55:10.352Z,94500.41
2017-10-11T15:57:38.071Z,94500.23
2017-10-11T16:00:05.982Z,94501.28
2017-10-11T16:02:33.824Z,94499.73
2017-10-11T16:05:02.427Z,94492.22
2017-10-11T16:07:30.362Z,94506.77
2017-10-11T16:09:58.158Z,94505.50
2017-10-11T16:12:26.363Z,94506.13
2017-10-11T16:14:54.131Z,94506.77
2017-10-11T16:17:21.983Z,94504.83
2017-10-11T16:19:49.734Z,94505.22
2017-10-11T16:22:17.547Z,94509.09
2017-10-11T16:24:45.428Z,94503.91
2017-10-11T16:27:13.192Z,94508.53
2017-10-11T16:29:41.073Z,94511.20
2017-10-11T16:32:09.236Z,94511.30
2017-10-11T16:34:37.079Z,94513.80
2017-10-11T16:37:05.834Z,94512.93
2017-10-11T16:39:33.715Z,94515.06
2017-10-11T16:42:01.484Z,94527.47
2017-10-11T16:44:29.250Z,94526.75
2017-10-11T16:46:57.115Z,94524.40
2017-10-11T16:49:25.027Z,94535.54
2017-10-11T16:51:54.029Z,94544.63
2017-10-11T16:54:21.801Z,94548.72
2017-10-11T16:56:50.372Z,94546.67
2017-10-11T16:59:18.229Z,94549.46
2017-10-11T17:01:46.237Z,94546.73
2017-10-11T17:04:13.983Z,94552.64
2017-10-11T17:06:41.834Z,94557.52
2017-10-11T17:09:09.659Z,94565.02
2017-10-11T17:11:37.558Z,94562.97
2017-10-11T17:14:05.364Z,94565.42
2017-10-11T17:16:33.128Z,94559.52
2017-10-11T17:19:01.589Z,94562.23
2017-10-11T17:21:30.645Z,94567.33
2017-10-11T17:23:58.586Z,94569.89
2017-10-11T17:26:27.240Z,94578.80
2017-10-11T17:28:55.031Z,94583.78
2017-10-11T17:31:23.132Z,94581.56
2017-10-11T17:33:50.942Z,94575.48
2017-10-11T17:36:19.344Z,94585.02
2017-10-11T17:38:47.285Z,94589.16
2017-10-11T17:41:15.087Z,94581.73
2017-10-11T17:43:42.936Z,94583.75
2017-10-11T17:46:10.687Z,94583.55
2017-10-11T17:48:40.130Z,94587.32
2017-10-11T17:51:08.022Z,94588.52
2017-10-11T17:53:36.647Z,94597.85
2017-10-11T17:56:05.543Z,94597.34
2017-10-11T17:58:33.591Z,94598.75
2017-10-11T18:01:02.186Z,94600.74
2017-10-11T18:03:30.149Z,94603.75
2017-10-11T18:05:57.948Z,94604.27
2017-10-11T18:08:25.736Z,94603.03
2017-10-11T18:10:54.661Z,94601.73
2017-10-11T18:13:22.516Z,94606.84
2017-10-11T18:15:50.362Z,94611.13
2017-10-11T18:18:18.234Z,94611.77
2017-10-11T18:20:46.104Z,94613.27
2017-10-11T18:23:13.891Z,94615.36
2017-10-11T18:25:41.699Z,94612.19
2017-10-11T18:28:09.714Z,94605.92
2017-10-11T18:30:37.541Z,94608.23
2017-10-11T18:33:05.486Z,94615.11
2017-10-11T18:35:33.472Z,94618.48
2017-10-11T18:38:02.669Z,94622.63
2017-10-11T18:40:30.517Z,94620.98
2017-10-11T18:42:59.301Z,94624.44
2017-10-11T18:45:27.036Z,94621.06
2017-10-11T18:47:54.875Z,94624.25
2017-10-11T18:50:22.789Z,94628.25
2017-10-11T18:52:52.683Z,94629.03
2017-10-11T18:55:20.727Z,94631.32
2017-10-11T18:57:49.659Z,94638.95
2017-10-11T19:00:19.295Z,94642.77
2017-10-11T19:02:49.022Z,94636.78
2017-10-11T19:05:16.822Z,94639.05
2017-10-11T19:07:45.522Z,94651.74
2017-10-11T19:10:13.412Z,94650.78
2017-10-11T19:12:41.265Z,94655.86
2017-10-11T19:15:09.165Z,94652.97
2017-10-11T19:17:36.922Z,94657.98
2017-10-11T19:20:04.758Z,94663.03
2017-10-11T19:22:32.484Z,94655.88
2017-10-11T19:25:00.341Z,94661.17
2017-10-11T19:27:28.166Z,94655.98
2017-10-11T19:29:56.401Z,94660.95
2017-10-11T19:32:24.134Z,94667.60
2017-10-11T19:34:52.056Z,94663.36
2017-10-11T19:37:19.903Z,94664.49
2017-10-11T19:39:48.670Z,94662.11
2017-10-11T19:42:18.278Z,94662.12
2017-10-11T19:44:47.889Z,94665.82
2017-10-11T19:47:15.652Z,94661.06
2017-10-11T19:49:43.485Z,94661.52
2017-10-11T19:52:11.392Z,94659.62
2017-10-11T19:54:39.392Z,94662.82
2017-10-11T19:57:07.209Z,94671.83
2017-10-11T19:59:36.108Z,94670.33
2017-10-11T20:02:03.981Z,94675.77
2017-10-11T20:04:31.868Z,94667.63
2017-10-11T20:06:59.818Z,94671.52
2017-10-11T20:09:27.642Z,94670.73
2017-10-11T20:11:55.378Z,94679.66
2017-10-11T20:14:23.179Z,94673.97
2017-10-11T20:16:51.021Z,94676.86
2017-10-11T20:19:18.828Z,94673.66
2017-10-11T20:21:46.861Z,94674.27
2017-10-11T20:24:14.664Z,94682.16
2017-10-11T20:26:42.516Z,94678.19
2017-10-11T20:29:10.441Z,94686.24
2017-10-11T20:31:39.344Z,94680.85
2017-10-11T20:34:07.163Z,94679.98
2017-10-11T20:36:35.065Z,94683.17
2017-10-11T20:39:02.807Z,94679.38
2017-10-11T20:41:30.506Z,94689.28
2017-10-11T20:43:58.360Z,94692.58
2017-10-11T20:46:26.140Z,94696.55
2017-10-11T20:48:53.912Z,94692.36
2017-10-11T20:51:21.737Z,94702.66
2017-10-11T20:53:49.546Z,94695.66
2017-10-11T20:56:17.315Z,94694.05
2017-10-11T20:58:45.226Z,94699.25
2017-10-11T21:01:13.472Z,94696.55
2017-10-11T21:03:41.234Z,94697.35
2017-10-11T21:06:09.071Z,94701.64
2017-10-11T21:08:36.812Z,94698.84
2017-10-11T21:11:04.635Z,94694.66
2017-10-11T21:13:32.442Z,94702.15
2017-10-11T21:16:00.904Z,94698.96
2017-10-11T21:18:28.766Z,94701.35
2017-10-11T21:20:56.581Z,94702.25
2017-10-11T21:23:24.406Z,94700.03
2017-10-11T21:25:52.124Z,94703.30
2017-10-11T21:28:19.947Z,94711.56
2017-10-11T21:30:48.738Z,94706.98
2017-10-11T21:33:16.564Z,94694.90
2017-10-11T21:35:44.351Z,94698.39
2017-10-11T21:38:12.194Z,94701.00
2017-10-11T21:40:40.004Z,94709.08
2017-10-11T21:43:07.824Z,94703.66
2017-10-11T21:45:35.650Z,94700.57
2017-10-11T21:48:03.440Z,94688.91
2017-10-11T21:50:31.227Z,94699.06
2017-10-11T21:52:59.044Z,94700.65
2017-10-11T21:55:26.726Z,94694.63
2017-10-11T21:57:54.513Z,94689.85
2017-10-11T22:00:22.337Z,94690.86
2017-10-11T22:02:50.086Z,94693.55
2017-10-11T22:05:17.908Z,94694.63
2017-10-11T22:07:45.668Z,94693.75
2017-10-11T22:10:13.443Z,94692.39
2017-10-11T22:12:41.395Z,94693.02
2017-10-11T22:15:09.092Z,94697.80
2017-10-11T22:17:36.825Z,94695.00
2017-10-11T22:20:04.632Z,94700.55
2017-10-11T22:22:33.617Z,94703.17
2017-10-11T22:25:01.314Z,94707.98
2017-10-11T22:27:29.072Z,94701.64
2017-10-11T22:29:56.850Z,94706.34
2017-10-11T22:32:25.368Z,94707.80
2017-10-11T22:34:53.225Z,94705.19
2017-10-11T22:37:21.112Z,94714.27
2017-10-11T22:39:48.852Z,94708.12
2017-10-11T22:42:16.571Z,94708.56
2017-10-11T22:44:44.357Z,94705.17
2017-10-11T22:47:12.158Z,94709.59
2017-10-11T22:49:39.950Z,94714.38
2017-10-11T22:52:07.734Z,94721.00
2017-10-11T22:54:36.465Z,94721.66
2017-10-11T22:57:04.200Z,94721.77
2017-10-11T22:59:31.969Z,94724.95
2017-10-11T23:01:59.738Z,94723.82
2017-10-11T23:04:27.481Z,94727.59
2017-10-11T23:06:55.229Z,94729.52
2017-10-11T23:09:23.016Z,94726.79
2017-10-11T23:11:50.722Z,94732.08
2017-10-11T23:14:18.482Z,94729.08
2017-10-11T23:16:46.428Z,94729.16
2017-10-11T23:19:14.147Z,94727.59
2017-10-11T23:21:41.873Z,94735.42
2017-10-11T23:24:09.599Z,94729.47
2017-10-11T23:26:37.336Z,94732.80
2017-10-11T23:29:05.087Z,94734.16
2017-10-11T23:31:32.854Z,94736.77
2017-10-11T23:34:00.651Z,94741.92
2017-10-11T23:36:28.324Z,94741.14
2017-10-11T23:38:56.075Z,94736.19
2017-10-11T23:41:23.742Z,94735.69
2017-10-11T23:43:51.470Z,94738.87
2017-10-11T23:46:19.369Z,94740.16
2017-10-11T23:48:47.068Z,94738.80
2017-10-11T23:51:14.796Z,94730.33
2017-10-11T23:53:42.535Z,94736.41
2017-10-11T23:56:10.223Z,94728.43
2017-10-11T23:58:37.952Z,94734.61
